createdAt,value
2018-04-16T00:00:31.323Z,21.4
2018-04-16T00:01:21.654Z,21.4
2018-04-16T00:02:10.863Z,21.4
2018-04-16T00:03:01.823Z,21.4
2018-04-16T00:03:51.820Z,21.4
2018-04-16T00:04:41.658Z,21.4
2018-04-16T00:05:31.448Z,21.4
2018-04-16T00:06:21.750Z,21.4
2018-04-16T00:07:11.548Z,21.4
2018-04-16T00:08:02.139Z,21.4
2018-04-16T00:08:52.234Z,21.4
2018-04-16T00:09:42.040Z,21.4
2018-04-16T00:10:32.115Z,21.4
2018-04-16T00:11:22.138Z,21.4
2018-04-16T00:12:11.922Z,21.4
2018-04-16T00:13:02.283Z,21.4
2018-04-16T00:13:52.040Z,21.4
2018-04-16T00:14:42.670Z,21.4
2018-04-16T00:15:32.785Z,21.4
2018-04-16T00:16:22.262Z,21.4
2018-04-16T00:17:12.592Z,21.4
2018-04-16T00:18:02.373Z,21.4
2018-04-16T00:18:52.453Z,21.4
2018-04-16T00:19:42.771Z,21.4
2018-04-16T00:20:32.002Z,21.4
2018-04-16T00:21:22.610Z,21.4
2018-04-16T00:22:12.947Z,21.4
2018-04-16T00:23:03.046Z,21.4
2018-04-16T00:23:53.084Z,21.4
2018-04-16T00:24:42.881Z,21.4
2018-04-16T00:25:33.490Z,21.5
2018-04-16T00:26:23.571Z,21.4
2018-04-16T00:27:13.353Z,21.4
2018-04-16T00:28:03.119Z,21.4
2018-04-16T00:28:53.458Z,21.4
2018-04-16T00:29:43.555Z,21.4
2018-04-16T00:30:33.617Z,21.4
2018-04-16T00:31:23.115Z,21.4
2018-04-16T00:32:13.451Z,21.4
2018-04-16T00:33:03.502Z,21.4
2018-04-16T00:33:54.130Z,21.4
2018-04-16T00:34:43.902Z,21.5
2018-04-16T00:35:33.707Z,21.4
2018-04-16T00:36:23.758Z,21.4
2018-04-16T00:37:14.087Z,21.4
2018-04-16T00:38:04.450Z,21.5
2018-04-16T00:38:53.945Z,21.5
2018-04-16T00:39:44.565Z,21.4
2018-04-16T00:40:34.069Z,21.5
2018-04-16T00:41:24.735Z,21.4
2018-04-16T00:42:14.759Z,21.4
2018-04-16T00:43:04.613Z,21.4
2018-04-16T00:43:54.114Z,21.4
2018-04-16T00:44:44.731Z,21.4
2018-04-16T00:45:34.773Z,21.4
2018-04-16T00:46:24.861Z,21.4
2018-04-16T00:47:14.893Z,21.4
2018-04-16T00:48:04.942Z,21.4
2018-04-16T00:48:54.727Z,21.4
2018-04-16T00:49:44.771Z,21.4
2018-04-16T00:50:35.128Z,21.4
2018-04-16T00:51:25.187Z,21.5
2018-04-16T00:52:15.566Z,21.4
2018-04-16T00:53:04.565Z,21.5
2018-04-16T00:53:55.128Z,21.4
2018-04-16T00:54:44.893Z,21.5
2018-04-16T00:55:34.973Z,21.5
2018-04-16T00:56:25.579Z,21.4
2018-04-16T00:57:15.726Z,21.5
2018-04-16T00:58:05.153Z,21.5
2018-04-16T00:58:55.215Z,21.5
2018-04-16T00:59:45.833Z,21.5
2018-04-16T01:00:35.631Z,21.5
2018-04-16T01:01:25.957Z,21.5
2018-04-16T01:02:16.328Z,21.5
2018-04-16T01:03:05.227Z,21.4
2018-04-16T01:03:55.857Z,21.5
2018-04-16T01:04:46.474Z,21.4
2018-04-16T01:05:36.579Z,21.5
2018-04-16T01:06:26.351Z,21.4
2018-04-16T01:07:16.392Z,21.4
2018-04-16T01:08:06.479Z,21.5
2018-04-16T01:08:55.958Z,21.5
2018-04-16T01:09:46.861Z,21.5
2018-04-16T01:10:36.101Z,21.4
2018-04-16T01:11:26.981Z,21.5
2018-04-16T01:12:16.766Z,21.5
2018-04-16T01:13:06.287Z,21.5
2018-04-16T01:13:56.367Z,21.5
2018-04-16T01:14:46.398Z,21.5
2018-04-16T01:15:36.744Z,21.5
2018-04-16T01:16:26.833Z,21.5
2018-04-16T01:17:17.467Z,21.5
2018-04-16T01:18:07.254Z,21.5
2018-04-16T01:18:57.586Z,21.5
2018-04-16T01:19:47.069Z,21.5
2018-04-16T01:20:37.714Z,21.5
2018-04-16T01:21:26.642Z,21.5
2018-04-16T01:22:17.858Z,21.5
2018-04-16T01:23:07.609Z,21.5
2018-04-16T01:23:57.663Z,21.5
2018-04-16T01:24:47.777Z,21.5
2018-04-16T01:25:37.262Z,21.5
2018-04-16T01:26:28.184Z,21.5
2018-04-16T01:27:17.922Z,21.5
2018-04-16T01:28:07.986Z,21.4
2018-04-16T01:28:58.070Z,21.5
2018-04-16T01:29:48.436Z,21.5
2018-04-16T01:30:38.215Z,21.5
2018-04-16T01:31:27.114Z,21.5
2018-04-16T01:32:18.309Z,21.5
2018-04-16T01:33:08.188Z,21.5
2018-04-16T01:33:58.174Z,21.5
2018-04-16T01:34:47.922Z,21.5
2018-04-16T01:35:38.613Z,21.5
2018-04-16T01:36:28.617Z,21.5
2018-04-16T01:37:17.582Z,21.5
2018-04-16T01:38:08.481Z,21.5
2018-04-16T01:38:58.537Z,21.5
2018-04-16T01:39:48.382Z,21.5
2018-04-16T01:40:38.668Z,21.5
2018-04-16T01:41:29.280Z,21.5
2018-04-16T01:42:19.095Z,21.5
2018-04-16T01:43:09.134Z,21.5
2018-04-16T01:43:59.459Z,21.5
2018-04-16T01:44:49.518Z,21.5
2018-04-16T01:45:39.068Z,21.5
2018-04-16T01:46:29.653Z,21.5
2018-04-16T01:47:19.181Z,21.5
2018-04-16T01:48:09.215Z,21.5
2018-04-16T01:48:59.582Z,21.5
2018-04-16T01:49:49.931Z,21.5
2018-04-16T01:50:39.407Z,21.5
2018-04-16T01:51:29.751Z,21.5
2018-04-16T01:52:20.090Z,21.5
2018-04-16T01:53:09.617Z,21.5
2018-04-16T01:53:59.943Z,21.5
2018-04-16T01:54:50.289Z,21.5
2018-04-16T01:55:40.059Z,21.5
2018-04-16T01:56:30.241Z,21.5
2018-04-16T01:57:20.253Z,21.5
2018-04-16T01:58:10.569Z,21.5
2018-04-16T01:58:59.776Z,21.5
2018-04-16T01:59:50.710Z,21.5
2018-04-16T02:00:40.188Z,21.5
2018-04-16T02:01:30.261Z,21.5
2018-04-16T02:02:20.878Z,21.5
2018-04-16T02:03:10.675Z,21.5
2018-04-16T02:04:00.982Z,21.5
2018-04-16T02:04:51.069Z,21.5
2018-04-16T02:05:40.824Z,21.5
2018-04-16T02:06:30.674Z,21.5
2018-04-16T02:07:20.998Z,21.5
2018-04-16T02:08:11.317Z,21.5
2018-04-16T02:09:01.375Z,21.5
2018-04-16T02:09:50.319Z,21.5
2018-04-16T02:10:40.658Z,21.5
2018-04-16T02:11:31.892Z,21.5
2018-04-16T02:12:21.679Z,21.5
2018-04-16T02:13:10.576Z,21.6
2018-04-16T02:14:01.527Z,21.6
2018-04-16T02:14:51.546Z,21.5
2018-04-16T02:15:41.901Z,21.5
2018-04-16T02:16:31.666Z,21.5
2018-04-16T02:17:21.119Z,21.5
2018-04-16T02:18:11.256Z,21.6
2018-04-16T02:19:01.592Z,21.5
2018-04-16T02:19:51.627Z,21.5
2018-04-16T02:20:42.266Z,21.5
2018-04-16T02:21:32.067Z,21.6
2018-04-16T02:22:22.385Z,21.5
2018-04-16T02:23:12.454Z,21.5
2018-04-16T02:24:02.240Z,21.5
2018-04-16T02:24:52.045Z,21.6
2018-04-16T02:25:42.662Z,21.6
2018-04-16T02:26:32.162Z,21.6
2018-04-16T02:27:22.795Z,21.6
2018-04-16T02:28:12.298Z,21.5
2018-04-16T02:29:02.664Z,21.5
2018-04-16T02:29:52.426Z,21.6
2018-04-16T02:30:42.475Z,21.6
2018-04-16T02:31:32.555Z,21.5
2018-04-16T02:32:22.879Z,21.6
2018-04-16T02:33:12.744Z,21.5
2018-04-16T02:34:03.309Z,21.5
2018-04-16T02:34:53.349Z,21.5
2018-04-16T02:35:42.904Z,21.6
2018-04-16T02:36:33.206Z,21.6
2018-04-16T02:37:23.574Z,21.6
2018-04-16T02:38:13.026Z,21.6
2018-04-16T02:39:03.388Z,21.5
2018-04-16T02:39:53.182Z,21.5
2018-04-16T02:40:42.691Z,21.6
2018-04-16T02:41:33.645Z,21.6
2018-04-16T02:42:23.729Z,21.5
2018-04-16T02:43:13.474Z,21.6
2018-04-16T02:44:04.089Z,21.6
2018-04-16T02:44:53.544Z,21.5
2018-04-16T02:45:43.881Z,21.6
2018-04-16T02:46:34.262Z,21.6
2018-04-16T02:47:23.188Z,21.6
2018-04-16T02:48:13.843Z,21.6
2018-04-16T02:49:04.465Z,21.6
2018-04-16T02:49:54.512Z,21.6
2018-04-16T02:50:44.572Z,21.6
2018-04-16T02:51:34.368Z,21.6
2018-04-16T02:52:24.436Z,21.6
2018-04-16T02:53:14.760Z,21.6
2018-04-16T02:54:04.284Z,21.6
2018-04-16T02:54:54.604Z,21.5
2018-04-16T02:55:44.460Z,21.4
2018-04-16T02:56:34.443Z,21.4
2018-04-16T02:57:24.502Z,21.4
2018-04-16T02:58:14.850Z,21.3
2018-04-16T02:59:04.939Z,21.2
2018-04-16T02:59:54.484Z,21.1
2018-04-16T03:00:44.786Z,21
2018-04-16T03:01:35.392Z,20.8
2018-04-16T03:02:25.182Z,20.7
2018-04-16T03:03:14.712Z,20.6
2018-04-16T03:04:05.073Z,20.5
2018-04-16T03:04:55.097Z,20.4
2018-04-16T03:05:45.418Z,20.3
2018-04-16T03:06:35.471Z,20.3
2018-04-16T03:07:25.562Z,20.2
2018-04-16T03:08:15.901Z,20.1
2018-04-16T03:09:05.427Z,20.1
2018-04-16T03:09:56.041Z,20.1
2018-04-16T03:10:45.801Z,20
2018-04-16T03:11:36.187Z,19.9
2018-04-16T03:12:25.369Z,19.9
2018-04-16T03:13:16.006Z,19.9
2018-04-16T03:14:06.056Z,19.9
2018-04-16T03:14:56.412Z,19.9
2018-04-16T03:15:45.631Z,19.8
2018-04-16T03:16:36.249Z,19.8
2018-04-16T03:17:25.755Z,19.8
2018-04-16T03:18:16.706Z,19.8
2018-04-16T03:19:06.505Z,19.8
2018-04-16T03:19:56.770Z,19.8
2018-04-16T03:20:46.813Z,19.7
2018-04-16T03:21:36.348Z,19.7
2018-04-16T03:22:26.973Z,19.7
2018-04-16T03:23:16.822Z,19.7
2018-04-16T03:24:06.788Z,19.6
2018-04-16T03:24:56.628Z,19.6
2018-04-16T03:25:47.504Z,19.6
2018-04-16T03:26:36.454Z,19.6
2018-04-16T03:27:26.523Z,19.6
2018-04-16T03:28:17.134Z,19.6
2018-04-16T03:29:06.905Z,19.6
2018-04-16T03:29:57.017Z,19.6
2018-04-16T03:30:47.410Z,19.6
2018-04-16T03:31:37.405Z,19.6
2018-04-16T03:32:27.474Z,19.6
2018-04-16T03:33:17.496Z,19.6
2018-04-16T03:34:07.336Z,19.6
2018-04-16T03:34:56.790Z,19.6
2018-04-16T03:35:47.999Z,19.6
2018-04-16T03:36:37.784Z,19.5
2018-04-16T03:37:27.585Z,19.5
2018-04-16T03:38:17.633Z,19.5
2018-04-16T03:39:08.301Z,19.5
2018-04-16T03:39:58.045Z,19.5
2018-04-16T03:40:48.366Z,19.5
2018-04-16T03:41:37.581Z,19.5
2018-04-16T03:42:27.925Z,19.5
2018-04-16T03:43:17.394Z,19.5
2018-04-16T03:44:08.065Z,19.5
2018-04-16T03:44:58.428Z,19.5
2018-04-16T03:45:48.563Z,19.5
2018-04-16T03:46:38.648Z,19.5
2018-04-16T03:47:28.610Z,19.4
2018-04-16T03:48:18.085Z,19.4
2018-04-16T03:49:08.760Z,19.4
2018-04-16T03:49:58.836Z,19.5
2018-04-16T03:50:48.827Z,19.4
2018-04-16T03:51:38.927Z,19.4
2018-04-16T03:52:29.268Z,19.4
2018-04-16T03:53:19.019Z,19.4
2018-04-16T03:54:09.381Z,19.4
2018-04-16T03:54:58.893Z,19.4
2018-04-16T03:55:48.662Z,19.4
2018-04-16T03:56:39.299Z,19.4
2018-04-16T03:57:29.636Z,19.4
2018-04-16T03:58:19.142Z,19.4
2018-04-16T03:59:09.194Z,19.4
2018-04-16T03:59:59.838Z,19.4
2018-04-16T04:00:49.324Z,19.4
2018-04-16T04:01:38.934Z,19.4
2018-04-16T04:02:29.789Z,19.4
2018-04-16T04:03:19.536Z,19.4
2018-04-16T04:04:09.580Z,19.4
2018-04-16T04:04:59.344Z,19.4
2018-04-16T04:05:49.967Z,19.4
2018-04-16T04:06:39.771Z,19.4
2018-04-16T04:07:29.830Z,19.4
2018-04-16T04:08:20.179Z,19.4
2018-04-16T04:09:10.190Z,19.4
2018-04-16T04:10:00.027Z,19.4
2018-04-16T04:10:49.521Z,19.4
2018-04-16T04:11:40.142Z,19.4
2018-04-16T04:12:30.511Z,19.4
2018-04-16T04:13:20.253Z,19.4
2018-04-16T04:14:10.683Z,19.4
2018-04-16T04:15:00.988Z,19.4
2018-04-16T04:15:51.025Z,19.4
2018-04-16T04:16:41.095Z,19.4
2018-04-16T04:17:31.175Z,19.4
2018-04-16T04:18:20.411Z,19.4
2018-04-16T04:19:11.262Z,19.3
2018-04-16T04:20:01.361Z,19.3
2018-04-16T04:20:51.405Z,19.3
2018-04-16T04:21:40.599Z,19.3
2018-04-16T04:22:31.239Z,19.3
2018-04-16T04:23:21.054Z,19.3
2018-04-16T04:24:11.390Z,19.3
2018-04-16T04:25:01.661Z,19.3
2018-04-16T04:25:50.911Z,19.3
2018-04-16T04:26:40.999Z,19.3
2018-04-16T04:27:30.779Z,19.3
2018-04-16T04:28:21.672Z,19.3
2018-04-16T04:29:12.008Z,19.3
2018-04-16T04:30:02.087Z,19.3
2018-04-16T04:30:52.169Z,19.3
2018-04-16T04:31:41.911Z,19.3
2018-04-16T04:32:31.971Z,19.3
2018-04-16T04:33:22.135Z,19.3
2018-04-16T04:34:12.130Z,19.3
2018-04-16T04:35:01.891Z,19.3
2018-04-16T04:35:52.263Z,19.3
2018-04-16T04:36:42.671Z,19.3
2018-04-16T04:37:32.174Z,19.3
2018-04-16T04:38:22.479Z,19.3
2018-04-16T04:39:12.611Z,19.3
2018-04-16T04:40:02.561Z,19.3
2018-04-16T04:40:52.948Z,19.3
2018-04-16T04:41:42.122Z,19.3
2018-04-16T04:42:33.016Z,19.3
2018-04-16T04:43:22.841Z,19.3
2018-04-16T04:44:12.938Z,19.3
2018-04-16T04:45:02.945Z,19.4
2018-04-16T04:45:53.307Z,19.4
2018-04-16T04:46:42.858Z,19.4
2018-04-16T04:47:33.163Z,19.4
2018-04-16T04:48:23.177Z,19.4
2018-04-16T04:49:13.537Z,19.4
2018-04-16T04:50:03.604Z,19.4
2018-04-16T04:50:53.136Z,19.4
2018-04-16T04:51:43.452Z,19.4
2018-04-16T04:52:33.520Z,19.4
2018-04-16T04:53:23.874Z,19.4
2018-04-16T04:54:13.918Z,19.4
2018-04-16T04:55:03.710Z,19.4
2018-04-16T04:55:53.194Z,19.4
2018-04-16T04:56:43.837Z,19.4
2018-04-16T04:57:33.418Z,19.4
2018-04-16T04:58:24.264Z,19.4
2018-04-16T04:59:13.737Z,19.4
2018-04-16T05:00:04.383Z,19.4
2018-04-16T05:00:53.849Z,19.4
2018-04-16T05:01:43.908Z,19.4
2018-04-16T05:02:33.994Z,19.4
2018-04-16T05:03:24.333Z,19.4
2018-04-16T05:04:14.396Z,19.4
2018-04-16T05:05:04.733Z,19.4
2018-04-16T05:05:54.213Z,19.4
2018-04-16T05:06:44.918Z,19.4
2018-04-16T05:07:34.916Z,19.4
2018-04-16T05:08:24.726Z,19.4
2018-04-16T05:09:15.065Z,19.4
2018-04-16T05:10:04.873Z,19.4
2018-04-16T05:10:54.667Z,19.4
2018-04-16T05:11:44.423Z,19.4
2018-04-16T05:12:35.333Z,19.4
2018-04-16T05:13:25.170Z,19.4
2018-04-16T05:14:14.328Z,19.4
2018-04-16T05:15:05.507Z,19.4
2018-04-16T05:15:55.569Z,19.4
2018-04-16T05:16:45.051Z,19.4
2018-04-16T05:17:35.666Z,19.4
2018-04-16T05:18:25.731Z,19.4
2018-04-16T05:19:15.528Z,19.3
2018-04-16T05:20:05.323Z,19.3
2018-04-16T05:20:55.965Z,19.3
2018-04-16T05:21:45.687Z,19.3
2018-04-16T05:22:35.508Z,19.3
2018-04-16T05:23:25.618Z,19.3
2018-04-16T05:24:15.618Z,19.3
2018-04-16T05:25:06.263Z,19.3
2018-04-16T05:25:56.346Z,19.3
2018-04-16T05:26:46.366Z,19.3
2018-04-16T05:27:36.467Z,19.3
2018-04-16T05:28:26.003Z,19.3
2018-04-16T05:29:16.558Z,19.3
2018-04-16T05:30:06.340Z,19.3
2018-04-16T05:30:56.432Z,19.3
2018-04-16T05:31:46.233Z,19.3
2018-04-16T05:32:36.736Z,19.3
2018-04-16T05:33:26.307Z,19.3
2018-04-16T05:34:16.662Z,19.3
2018-04-16T05:35:07.019Z,19.3
2018-04-16T05:35:56.506Z,19.3
2018-04-16T05:36:46.321Z,19.3
2018-04-16T05:37:36.925Z,19.3
2018-04-16T05:38:26.122Z,19.3
2018-04-16T05:39:17.069Z,19.3
2018-04-16T05:40:07.352Z,19.3
2018-04-16T05:40:56.859Z,19.3
2018-04-16T05:41:47.499Z,19.3
2018-04-16T05:42:37.767Z,19.3
2018-04-16T05:43:27.069Z,19.3
2018-04-16T05:44:17.116Z,19.3
2018-04-16T05:45:07.166Z,19.3
2018-04-16T05:45:57.531Z,19.3
2018-04-16T05:46:47.916Z,19.3
2018-04-16T05:47:37.684Z,19.3
2018-04-16T05:48:27.456Z,19.3
2018-04-16T05:49:17.736Z,19.3
2018-04-16T05:50:07.868Z,19.3
2018-04-16T05:50:58.209Z,19.3
2018-04-16T05:51:47.989Z,19.3
2018-04-16T05:52:38.331Z,19.3
2018-04-16T05:53:27.553Z,19.3
2018-04-16T05:54:17.630Z,19.3
2018-04-16T05:55:07.688Z,19.3
2018-04-16T05:55:58.343Z,19.3
2018-04-16T05:56:47.798Z,19.3
2018-04-16T05:57:38.124Z,19.3
2018-04-16T05:58:28.773Z,19.3
2018-04-16T05:59:18.546Z,19.3
2018-04-16T06:00:08.638Z,19.3
2018-04-16T06:00:58.681Z,19.3
2018-04-16T06:01:48.269Z,19.3
2018-04-16T06:02:38.552Z,19.3
2018-04-16T06:03:28.852Z,19.3
2018-04-16T06:04:18.348Z,19.3
2018-04-16T06:05:08.190Z,19.3
2018-04-16T06:05:59.088Z,19.3
2018-04-16T06:06:49.393Z,19.3
2018-04-16T06:07:38.588Z,19.3
2018-04-16T06:08:28.950Z,19.4
2018-04-16T06:09:19.015Z,19.4
2018-04-16T06:10:09.403Z,19.4
2018-04-16T06:10:59.741Z,19.4
2018-04-16T06:11:48.938Z,19.4
2018-04-16T06:12:39.090Z,19.4
2018-04-16T06:13:29.381Z,19.4
2018-04-16T06:14:19.669Z,19.4
2018-04-16T06:15:09.170Z,19.4
2018-04-16T06:16:00.091Z,19.4
2018-04-16T06:16:49.145Z,19.4
2018-04-16T06:17:40.245Z,19.4
2018-04-16T06:18:29.425Z,19.4
2018-04-16T06:19:19.785Z,19.4
2018-04-16T06:20:09.562Z,19.4
2018-04-16T06:21:00.170Z,19.4
2018-04-16T06:21:49.967Z,19.4
2018-04-16T06:22:40.300Z,19.4
2018-04-16T06:23:30.088Z,19.4
2018-04-16T06:24:19.579Z,19.4
2018-04-16T06:25:10.817Z,19.4
2018-04-16T06:26:00.270Z,19.4
2018-04-16T06:26:50.654Z,19.4
2018-04-16T06:27:39.821Z,19.4
2018-04-16T06:28:30.747Z,19.4
2018-04-16T06:29:20.234Z,19.3
2018-04-16T06:30:10.387Z,19.4
2018-04-16T06:31:00.927Z,19.3
2018-04-16T06:31:50.504Z,19.4
2018-04-16T06:32:41.061Z,19.3
2018-04-16T06:33:31.384Z,19.3
2018-04-16T06:34:21.520Z,19.4
2018-04-16T06:35:11.516Z,19.3
2018-04-16T06:36:01.266Z,19.3
2018-04-16T06:36:52.069Z,19.4
2018-04-16T06:37:41.125Z,19.3
2018-04-16T06:38:31.737Z,19.3
2018-04-16T06:39:20.977Z,19.3
2018-04-16T06:40:11.883Z,19.3
2018-04-16T06:41:01.954Z,19.3
2018-04-16T06:41:51.743Z,19.3
2018-04-16T06:42:42.060Z,19.3
2018-04-16T06:43:30.714Z,19.3
2018-04-16T06:44:21.938Z,19.3
2018-04-16T06:45:12.254Z,19.4
2018-04-16T06:46:02.377Z,19.3
2018-04-16T06:46:51.632Z,19.3
2018-04-16T06:47:41.696Z,19.3
2018-04-16T06:48:32.533Z,19.3
2018-04-16T06:49:21.453Z,19.3
2018-04-16T06:50:12.072Z,19.3
2018-04-16T06:51:02.694Z,19.3
2018-04-16T06:51:51.914Z,19.3
2018-04-16T06:52:42.369Z,19.3
2018-04-16T06:53:32.905Z,19.3
2018-04-16T06:54:22.679Z,19.3
2018-04-16T06:55:12.720Z,19.3
2018-04-16T06:56:02.833Z,19.3
2018-04-16T06:56:52.852Z,19.3
2018-04-16T06:57:42.648Z,19.3
2018-04-16T06:58:31.867Z,19.3
2018-04-16T06:59:23.422Z,19.3
2018-04-16T07:00:13.219Z,19.3
2018-04-16T07:01:03.676Z,19.3
2018-04-16T07:01:52.766Z,19.3
2018-04-16T07:02:43.091Z,19.3
2018-04-16T07:03:33.694Z,19.3
2018-04-16T07:04:22.136Z,19.3
2018-04-16T07:05:13.349Z,19.3
2018-04-16T07:06:03.122Z,19.3
2018-04-16T07:06:53.350Z,19.3
2018-04-16T07:07:43.778Z,19.3
2018-04-16T07:08:33.871Z,19.3
2018-04-16T07:09:23.271Z,19.3
2018-04-16T07:10:14.144Z,19.3
2018-04-16T07:11:03.759Z,19.3
2018-04-16T07:11:54.290Z,19.3
2018-04-16T07:12:43.775Z,19.3
2018-04-16T07:13:33.534Z,19.3
2018-04-16T07:14:24.208Z,19.3
2018-04-16T07:15:13.976Z,19.3
2018-04-16T07:16:05.156Z,19.3
2018-04-16T07:16:54.100Z,19.3
2018-04-16T07:17:44.240Z,19.3
2018-04-16T07:18:34.236Z,19.3
2018-04-16T07:19:24.034Z,19.3
2018-04-16T07:20:14.078Z,19.3
2018-04-16T07:21:04.982Z,19.3
2018-04-16T07:21:54.497Z,19.3
2018-04-16T07:22:45.113Z,19.3
2018-04-16T07:23:34.923Z,19.3
2018-04-16T07:24:25.085Z,19.3
2018-04-16T07:25:14.705Z,19.3
2018-04-16T07:26:05.364Z,19.3
2018-04-16T07:26:55.162Z,19.3
2018-04-16T07:27:44.819Z,19.3
2018-04-16T07:28:34.981Z,19.3
2018-04-16T07:29:24.288Z,19.3
2018-04-16T07:30:14.812Z,19.3
2018-04-16T07:31:05.176Z,19.3
2018-04-16T07:31:55.218Z,19.3
2018-04-16T07:32:45.574Z,19.3
2018-04-16T07:33:35.721Z,19.3
2018-04-16T07:34:25.429Z,19.3
2018-04-16T07:35:16.033Z,18.3
2018-04-16T07:36:05.349Z,18.9
2018-04-16T07:36:55.305Z,20.3
2018-04-16T07:37:46.238Z,22.6
2018-04-16T07:38:36.276Z,22.9
2018-04-16T07:39:25.753Z,22
2018-04-16T07:40:16.478Z,21.1
2018-04-16T07:41:05.899Z,20.7
2018-04-16T07:41:55.977Z,20.8
2018-04-16T07:43:36.094Z,21.3
2018-04-16T07:44:25.902Z,21.3
2018-04-16T07:46:06.547Z,21
2018-04-16T07:46:55.802Z,21
2018-04-16T07:47:45.844Z,21
2018-04-16T07:48:37.040Z,21.1
2018-04-16T07:49:26.633Z,21.1
2018-04-16T07:50:16.315Z,21.1
2018-04-16T07:51:07.229Z,21.1
2018-04-16T07:51:57.048Z,21.1
2018-04-16T07:54:26.679Z,21.2
2018-04-16T07:55:17.517Z,21.2
2018-04-16T07:56:07.319Z,21.3
2018-04-16T07:56:56.824Z,21.3
2018-04-16T07:57:47.752Z,21.4
2018-04-16T07:58:37.521Z,21.4
2018-04-16T07:59:27.366Z,21.4
2018-04-16T08:00:17.657Z,21.5
2018-04-16T08:01:07.221Z,21.6
2018-04-16T08:01:56.970Z,21.6
2018-04-16T08:02:46.813Z,21.6
2018-04-16T08:03:37.449Z,21.7
2018-04-16T08:04:27.927Z,21.8
2018-04-16T08:05:18.036Z,21.8
2018-04-16T08:06:08.363Z,21.8
2018-04-16T08:06:57.564Z,21.9
2018-04-16T08:07:48.211Z,21.9
2018-04-16T08:08:38.577Z,22
2018-04-16T08:09:28.310Z,22
2018-04-16T08:10:18.376Z,22.1
2018-04-16T08:11:08.471Z,22.1
2018-04-16T08:11:58.816Z,22.2
2018-04-16T08:12:48.316Z,22.3
2018-04-16T08:13:38.373Z,22.3
2018-04-16T08:14:28.155Z,22.4
2018-04-16T08:15:18.493Z,22.6
2018-04-16T08:16:09.126Z,22.6
2018-04-16T08:16:58.628Z,22.7
2018-04-16T08:17:48.413Z,22.8
2018-04-16T08:18:38.733Z,22.8
2018-04-16T08:19:29.406Z,22.8
2018-04-16T08:20:18.557Z,22.9
2018-04-16T08:21:09.461Z,22.9
2018-04-16T08:21:59.536Z,23
2018-04-16T08:22:49.609Z,23.1
2018-04-16T08:23:39.659Z,23.1
2018-04-16T08:24:28.900Z,23.1
2018-04-16T08:25:19.815Z,23.2
2018-04-16T08:26:09.845Z,23.2
2018-04-16T08:27:00.137Z,23.3
2018-04-16T08:27:49.698Z,23.3
2018-04-16T08:28:39.762Z,23.4
2018-04-16T08:29:29.552Z,23.4
2018-04-16T08:30:19.609Z,23.4
2018-04-16T08:31:10.223Z,23.5
2018-04-16T08:32:00.316Z,23.6
2018-04-16T08:32:50.349Z,23.6
2018-04-16T08:33:40.146Z,23.7
2018-04-16T08:34:29.679Z,23.8
2018-04-16T08:35:19.989Z,23.8
2018-04-16T08:36:10.197Z,23.9
2018-04-16T08:37:00.417Z,23.9
2018-04-16T08:37:50.724Z,24
2018-04-16T08:38:39.973Z,24.1
2018-04-16T08:39:30.877Z,24.1
2018-04-16T08:40:20.657Z,24.1
2018-04-16T08:41:10.427Z,24.2
2018-04-16T08:42:00.756Z,24.2
2018-04-16T08:42:50.828Z,24.2
2018-04-16T08:43:41.170Z,24.3
2018-04-16T08:44:30.677Z,24.3
2018-04-16T08:45:20.746Z,24.3
2018-04-16T08:46:10.791Z,24.4
2018-04-16T08:47:01.127Z,24.4
2018-04-16T08:47:50.947Z,24.4
2018-04-16T08:48:40.994Z,24.4
2018-04-16T08:49:31.068Z,24.4
2018-04-16T08:50:21.680Z,24.5
2018-04-16T08:51:11.182Z,24.5
2018-04-16T08:52:01.837Z,24.5
2018-04-16T08:52:51.851Z,24.6
2018-04-16T08:53:41.067Z,24.6
2018-04-16T08:54:31.484Z,24.6
2018-04-16T08:55:22.083Z,24.7
2018-04-16T08:56:12.124Z,24.8
2018-04-16T08:57:01.313Z,24.8
2018-04-16T08:57:51.969Z,24.8
2018-04-16T08:58:42.283Z,24.8
2018-04-16T08:59:32.394Z,24.8
2018-04-16T09:00:22.421Z,24.9
2018-04-16T09:01:12.492Z,24.9
2018-04-16T09:02:02.575Z,24.9
2018-04-16T09:02:52.623Z,24.9
2018-04-16T09:03:42.709Z,24.9
2018-04-16T09:04:32.736Z,24.9
2018-04-16T09:05:22.525Z,24.9
2018-04-16T09:06:12.618Z,25
2018-04-16T09:07:02.354Z,25
2018-04-16T09:07:52.713Z,25
2018-04-16T09:08:43.002Z,25
2018-04-16T09:09:33.171Z,25
2018-04-16T09:10:22.893Z,25.1
2018-04-16T09:11:12.972Z,25.1
2018-04-16T09:12:02.720Z,25.1
2018-04-16T09:12:52.851Z,25.1
2018-04-16T09:13:43.428Z,25.1
2018-04-16T09:14:32.689Z,25.1
2018-04-16T09:15:23.290Z,25.2
2018-04-16T09:16:13.080Z,25.3
2018-04-16T09:17:03.719Z,25.3
2018-04-16T09:17:53.477Z,25.3
2018-04-16T09:18:43.533Z,25.4
2018-04-16T09:19:33.880Z,25.4
2018-04-16T09:20:23.716Z,25.4
2018-04-16T09:21:13.752Z,25.5
2018-04-16T09:22:03.251Z,25.6
2018-04-16T09:22:53.595Z,25.6
2018-04-16T09:23:43.650Z,25.6
2018-04-16T09:24:33.427Z,25.7
2018-04-16T09:25:24.389Z,25.8
2018-04-16T09:26:14.118Z,25.8
2018-04-16T09:27:03.600Z,25.9
2018-04-16T09:27:53.519Z,25.9
2018-04-16T09:28:44.045Z,25.9
2018-04-16T09:29:34.401Z,26
2018-04-16T09:30:24.154Z,26.1
2018-04-16T09:31:14.496Z,26.1
2018-04-16T09:32:04.546Z,26.1
2018-04-16T09:32:54.317Z,26.1
2018-04-16T09:33:44.970Z,26.2
2018-04-16T09:34:34.163Z,26.2
2018-04-16T09:35:23.957Z,26.3
2018-04-16T09:36:14.881Z,26.3
2018-04-16T09:37:04.355Z,26.3
2018-04-16T09:37:55.206Z,26.4
2018-04-16T09:38:45.344Z,26.4
2018-04-16T09:39:34.232Z,26.4
2018-04-16T09:40:25.168Z,26.4
2018-04-16T09:41:14.925Z,26.5
2018-04-16T09:42:05.324Z,26.5
2018-04-16T09:42:55.352Z,26.5
2018-04-16T09:43:45.127Z,26.6
2018-04-16T09:44:34.955Z,26.6
2018-04-16T09:45:25.262Z,26.6
2018-04-16T09:46:15.402Z,26.6
2018-04-16T09:47:05.969Z,26.6
2018-04-16T09:47:55.749Z,26.6
2018-04-16T09:48:45.321Z,26.6
2018-04-16T09:49:35.912Z,26.6
2018-04-16T09:50:25.881Z,26.6
2018-04-16T09:51:16.035Z,26.6
2018-04-16T09:52:06.076Z,26.6
2018-04-16T09:52:55.546Z,26.6
2018-04-16T09:53:46.526Z,26.6
2018-04-16T09:54:35.991Z,26.6
2018-04-16T09:55:26.046Z,26.6
2018-04-16T09:56:16.115Z,26.6
2018-04-16T09:57:06.486Z,26.6
2018-04-16T09:57:56.242Z,26.6
2018-04-16T09:58:46.268Z,26.5
2018-04-16T09:59:36.329Z,26.5
2018-04-16T10:00:26.486Z,26.4
2018-04-16T10:01:16.446Z,26.4
2018-04-16T10:02:06.545Z,26.4
2018-04-16T10:02:57.212Z,26.4
2018-04-16T10:03:47.231Z,26.4
2018-04-16T10:04:37.252Z,26.4
2018-04-16T10:05:26.525Z,26.3
2018-04-16T10:06:16.556Z,26.3
2018-04-16T10:07:06.610Z,26.3
2018-04-16T10:07:57.299Z,26.3
2018-04-16T10:08:47.573Z,26.3
2018-04-16T10:09:37.643Z,26.3
2018-04-16T10:10:27.701Z,26.3
2018-04-16T10:11:17.493Z,26.3
2018-04-16T10:12:07.845Z,26.3
2018-04-16T10:12:57.605Z,26.3
2018-04-16T10:13:47.720Z,26.3
2018-04-16T10:14:38.034Z,26.3
2018-04-16T10:15:26.680Z,26.3
2018-04-16T10:16:17.864Z,26.2
2018-04-16T10:17:08.202Z,26
2018-04-16T10:17:57.830Z,26
2018-04-16T10:18:47.497Z,26
2018-04-16T10:19:38.448Z,25.9
2018-04-16T10:20:27.644Z,25.9
2018-04-16T10:21:18.243Z,25.9
2018-04-16T10:22:08.326Z,25.9
2018-04-16T10:22:58.115Z,25.9
2018-04-16T10:23:47.041Z,25.9
2018-04-16T10:24:38.822Z,25.8
2018-04-16T10:25:28.270Z,25.8
2018-04-16T10:26:17.792Z,25.8
2018-04-16T10:27:08.696Z,25.8
2018-04-16T10:27:58.781Z,25.8
2018-04-16T10:28:48.555Z,25.8
2018-04-16T10:29:38.600Z,25.8
2018-04-16T10:30:28.942Z,25.8
2018-04-16T10:31:18.442Z,25.8
2018-04-16T10:32:08.768Z,25.8
2018-04-16T10:32:58.919Z,25.8
2018-04-16T10:33:48.923Z,25.8
2018-04-16T10:34:38.966Z,25.8
2018-04-16T10:35:29.597Z,25.8
2018-04-16T10:36:19.357Z,25.8
2018-04-16T10:37:09.733Z,25.8
2018-04-16T10:37:58.930Z,25.8
2018-04-16T10:38:49.314Z,25.8
2018-04-16T10:39:39.944Z,25.8
2018-04-16T10:40:30.094Z,25.8
2018-04-16T10:41:19.787Z,25.8
2018-04-16T10:42:09.819Z,25.8
2018-04-16T10:42:59.315Z,25.8
2018-04-16T10:43:49.932Z,25.8
2018-04-16T10:44:39.733Z,25.8
2018-04-16T10:45:29.780Z,25.8
2018-04-16T10:46:20.408Z,25.8
2018-04-16T10:47:10.667Z,25.8
2018-04-16T10:48:00.440Z,25.8
2018-04-16T10:48:51.108Z,25.8
2018-04-16T10:49:41.007Z,25.8
2018-04-16T10:50:30.981Z,25.8
2018-04-16T10:51:21.290Z,25.8
2018-04-16T10:52:11.046Z,25.8
2018-04-16T10:53:01.116Z,25.8
2018-04-16T10:53:51.526Z,25.8
2018-04-16T10:54:41.263Z,25.8
2018-04-16T10:55:31.673Z,25.8
2018-04-16T10:56:21.384Z,25.8
2018-04-16T10:57:11.198Z,25.8
2018-04-16T10:58:01.526Z,25.8
2018-04-16T10:58:51.004Z,25.8
2018-04-16T10:59:41.598Z,25.8
2018-04-16T11:00:32.013Z,25.8
2018-04-16T11:01:21.758Z,25.8
2018-04-16T11:02:11.542Z,25.8
2018-04-16T11:03:01.301Z,25.8
2018-04-16T11:03:51.668Z,25.8
2018-04-16T11:04:41.739Z,25.8
2018-04-16T11:05:31.500Z,25.8
2018-04-16T11:06:22.550Z,25.8
2018-04-16T11:07:12.169Z,25.7
2018-04-16T11:08:01.397Z,25.7
2018-04-16T11:08:52.057Z,25.7
2018-04-16T11:09:42.398Z,25.7
2018-04-16T11:10:31.594Z,25.7